createdAt,value
2018-08-24T00:00:01.382Z,0.00
2018-08-24T00:01:01.359Z,0.00
2018-08-24T00:02:01.347Z,0.00
2018-08-24T00:03:01.336Z,0.00
2018-08-24T00:04:01.326Z,0.00
2018-08-24T00:05:01.331Z,0.00
2018-08-24T00:06:01.303Z,0.00
2018-08-24T00:07:01.292Z,0.00
2018-08-24T00:08:01.281Z,0.00
2018-08-24T00:09:01.270Z,0.00
2018-08-24T00:10:01.276Z,0.00
2018-08-24T00:11:01.246Z,0.00
2018-08-24T00:12:01.237Z,0.00
2018-08-24T00:13:01.223Z,0.00
2018-08-24T00:14:01.214Z,0.00
2018-08-24T00:15:01.221Z,0.00
2018-08-24T00:16:01.190Z,0.00
2018-08-24T00:17:01.191Z,0.00
2018-08-24T00:18:01.168Z,0.00
2018-08-24T00:19:01.156Z,0.00
2018-08-24T00:20:01.152Z,0.00
2018-08-24T00:21:01.135Z,0.00
2018-08-24T00:22:01.165Z,0.00
2018-08-24T00:23:01.111Z,0.00
2018-08-24T00:24:01.103Z,0.00
2018-08-24T00:25:01.098Z,0.00
2018-08-24T00:26:01.078Z,0.00
2018-08-24T00:27:01.066Z,0.00
2018-08-24T00:28:01.079Z,0.00
2018-08-24T00:29:01.047Z,0.00
2018-08-24T00:30:01.035Z,0.00
2018-08-24T00:31:01.025Z,0.00
2018-08-24T00:32:01.011Z,0.00
2018-08-24T00:33:01.000Z,0.00
2018-08-24T00:34:01.004Z,0.00
2018-08-24T00:35:00.979Z,0.00
2018-08-24T00:36:00.967Z,0.00
2018-08-24T00:37:00.973Z,0.00
2018-08-24T00:38:00.949Z,0.00
2018-08-24T00:39:00.952Z,0.00
2018-08-24T00:40:00.963Z,0.00
2018-08-24T00:41:00.916Z,0.00
2018-08-24T00:42:00.903Z,0.00
2018-08-24T00:43:00.934Z,0.00
2018-08-24T00:44:00.885Z,0.00
2018-08-24T00:45:00.867Z,0.00
2018-08-24T00:46:00.859Z,0.00
2018-08-24T00:47:00.848Z,0.00
2018-08-24T00:48:00.836Z,0.00
2018-08-24T00:49:00.848Z,0.00
2018-08-24T00:50:00.811Z,0.00
2018-08-24T00:51:00.803Z,0.00
2018-08-24T00:52:00.791Z,0.00
2018-08-24T00:53:00.780Z,0.00
2018-08-24T00:54:00.771Z,0.00
2018-08-24T00:55:00.796Z,0.00
2018-08-24T00:56:00.747Z,0.00
2018-08-24T00:57:00.737Z,0.00
2018-08-24T00:58:00.726Z,0.00
2018-08-24T00:59:00.715Z,0.00
2018-08-24T01:00:00.703Z,0.00
2018-08-24T01:01:00.707Z,0.00
2018-08-24T01:02:00.684Z,0.00
2018-08-24T01:03:00.670Z,0.00
2018-08-24T01:04:00.656Z,0.00
2018-08-24T01:05:00.649Z,0.00
2018-08-24T01:06:00.653Z,0.00
2018-08-24T01:07:00.628Z,0.00
2018-08-24T01:08:00.613Z,0.00
2018-08-24T01:09:00.598Z,0.00
2018-08-24T01:10:00.589Z,0.00
2018-08-24T01:11:00.598Z,0.00
2018-08-24T01:12:00.569Z,0.00
2018-08-24T01:13:00.556Z,0.00
2018-08-24T01:14:00.560Z,0.00
2018-08-24T01:15:00.546Z,0.00
2018-08-24T01:16:00.521Z,0.00
2018-08-24T01:17:00.512Z,0.00
2018-08-24T01:18:00.500Z,0.00
2018-08-24T01:19:00.489Z,0.00
2018-08-24T01:20:00.497Z,0.00
2018-08-24T01:21:00.465Z,0.00
2018-08-24T01:22:00.472Z,0.00
2018-08-24T01:23:00.444Z,0.00
2018-08-24T01:24:00.435Z,0.00
2018-08-24T01:25:00.445Z,0.00
2018-08-24T01:26:00.413Z,0.00
2018-08-24T01:27:00.400Z,0.00
2018-08-24T01:28:00.390Z,0.00
2018-08-24T01:29:00.386Z,0.00
2018-08-24T01:30:00.365Z,0.00
2018-08-24T01:31:00.372Z,0.00
2018-08-24T01:32:00.353Z,0.00
2018-08-24T01:33:00.332Z,0.00
2018-08-24T01:34:00.324Z,0.00
2018-08-24T01:35:00.313Z,0.00
2018-08-24T01:36:00.315Z,0.00
2018-08-24T01:37:00.316Z,0.00
2018-08-24T01:38:00.280Z,0.00
2018-08-24T01:39:00.267Z,0.00
2018-08-24T01:40:00.255Z,0.00
2018-08-24T01:41:00.246Z,0.00
2018-08-24T01:42:00.280Z,0.00
2018-08-24T01:43:00.225Z,0.00
2018-08-24T01:44:00.228Z,0.00
2018-08-24T01:45:00.199Z,0.00
2018-08-24T01:46:00.187Z,0.00
2018-08-24T01:47:00.184Z,0.00
2018-08-24T01:48:00.168Z,0.00
2018-08-24T01:49:00.158Z,0.00
2018-08-24T01:50:00.166Z,0.00
2018-08-24T01:51:00.134Z,0.00
2018-08-24T01:52:00.122Z,0.00
2018-08-24T01:53:00.111Z,0.00
2018-08-24T01:54:00.097Z,0.00
2018-08-24T01:55:00.087Z,0.00
2018-08-24T01:56:00.105Z,0.00
2018-08-24T01:57:00.068Z,0.00
2018-08-24T01:58:00.058Z,0.00
2018-08-24T01:59:00.091Z,0.00
2018-08-24T02:00:00.033Z,0.00
2018-08-24T02:01:00.022Z,0.00
2018-08-24T02:02:00.030Z,0.00
2018-08-24T02:02:59.996Z,0.00
2018-08-24T02:03:59.989Z,0.00
2018-08-24T02:04:59.972Z,0.00
2018-08-24T02:05:59.964Z,0.00
2018-08-24T02:06:59.953Z,0.00
2018-08-24T02:07:59.955Z,0.00
2018-08-24T02:08:59.931Z,0.00
2018-08-24T02:09:59.917Z,0.00
2018-08-24T02:10:59.904Z,0.00
2018-08-24T02:11:59.892Z,0.00
2018-08-24T02:12:59.902Z,0.00
2018-08-24T02:13:59.873Z,0.00
2018-08-24T02:14:59.859Z,0.00
2018-08-24T02:15:59.848Z,0.00
2018-08-24T02:16:59.840Z,0.00
2018-08-24T02:17:59.841Z,0.00
2018-08-24T02:18:59.828Z,0.00
2018-08-24T02:19:59.806Z,0.00
2018-08-24T02:20:59.791Z,0.00
2018-08-24T02:21:59.783Z,0.00
2018-08-24T02:22:59.770Z,0.00
2018-08-24T02:23:59.771Z,0.00
2018-08-24T02:24:59.747Z,0.00
2018-08-24T02:25:59.742Z,0.00
2018-08-24T02:26:59.726Z,0.00
2018-08-24T02:27:59.713Z,0.00
2018-08-24T02:28:59.718Z,0.00
2018-08-24T02:29:59.707Z,0.00
2018-08-24T02:30:59.683Z,0.00
2018-08-24T02:31:59.667Z,0.00
2018-08-24T02:32:59.657Z,0.00
2018-08-24T02:33:59.674Z,0.00
2018-08-24T02:34:59.636Z,0.00
2018-08-24T02:35:59.631Z,0.00
2018-08-24T02:36:59.614Z,0.00
2018-08-24T02:37:59.602Z,0.00
2018-08-24T02:38:59.590Z,0.00
2018-08-24T02:39:59.592Z,0.00
2018-08-24T02:40:59.566Z,0.00
2018-08-24T02:41:59.554Z,0.00
2018-08-24T02:42:59.541Z,0.00
2018-08-24T02:43:59.530Z,0.00
2018-08-24T02:44:59.601Z,0.00
2018-08-24T02:45:59.510Z,0.00
2018-08-24T02:46:59.501Z,0.00
2018-08-24T02:47:59.487Z,0.00
2018-08-24T02:48:59.494Z,0.00
2018-08-24T02:49:59.462Z,0.00
2018-08-24T02:50:59.454Z,0.00
2018-08-24T02:51:59.440Z,0.00
2018-08-24T02:52:59.427Z,0.00
2018-08-24T02:53:59.433Z,0.00
2018-08-24T02:54:59.407Z,0.00
2018-08-24T02:55:59.397Z,0.00
2018-08-24T02:56:59.414Z,0.00
2018-08-24T02:57:59.373Z,0.00
2018-08-24T02:58:59.362Z,0.00
2018-08-24T02:59:59.359Z,0.00
2018-08-24T03:00:59.342Z,0.00
2018-08-24T03:01:59.327Z,0.00
2018-08-24T03:02:59.338Z,0.00
2018-08-24T03:03:59.308Z,0.00
2018-08-24T03:04:59.361Z,0.00
2018-08-24T03:05:59.290Z,0.00
2018-08-24T03:06:59.276Z,0.00
2018-08-24T03:07:59.263Z,0.00
2018-08-24T03:08:59.267Z,0.00
2018-08-24T03:09:59.248Z,0.00
2018-08-24T03:10:59.233Z,0.00
2018-08-24T03:11:59.220Z,0.00
2018-08-24T03:12:59.227Z,0.00
2018-08-24T03:13:59.205Z,0.00
2018-08-24T03:14:59.189Z,0.00
2018-08-24T03:15:59.201Z,0.00
2018-08-24T03:16:59.165Z,0.00
2018-08-24T03:17:59.172Z,0.00
2018-08-24T03:18:59.143Z,0.00
2018-08-24T03:19:59.137Z,0.00
2018-08-24T03:20:59.126Z,0.00
2018-08-24T03:21:59.114Z,0.00
2018-08-24T03:22:59.100Z,0.00
2018-08-24T03:23:59.104Z,0.00
2018-08-24T03:24:59.079Z,0.00
2018-08-24T03:25:59.068Z,0.00
2018-08-24T03:26:59.056Z,0.00
2018-08-24T03:27:59.053Z,0.00
2018-08-24T03:28:59.051Z,0.00
2018-08-24T03:29:59.024Z,0.00
2018-08-24T03:30:59.016Z,0.00
2018-08-24T03:31:59.003Z,0.00
2018-08-24T03:32:58.992Z,0.00
2018-08-24T03:33:58.997Z,0.00
2018-08-24T03:34:58.972Z,0.00
2018-08-24T03:35:58.961Z,0.00
2018-08-24T03:36:58.952Z,0.00
2018-08-24T03:37:58.939Z,0.00
2018-08-24T03:38:58.978Z,0.00
2018-08-24T03:39:58.919Z,0.00
2018-08-24T03:40:58.909Z,0.00
2018-08-24T03:41:58.898Z,0.00
2018-08-24T03:42:58.888Z,0.00
2018-08-24T03:43:58.875Z,0.00
2018-08-24T03:44:58.882Z,0.00
2018-08-24T03:45:58.956Z,0.00
2018-08-24T03:46:58.847Z,0.00
2018-08-24T03:47:58.834Z,0.00
2018-08-24T03:48:58.826Z,0.00
2018-08-24T03:49:58.830Z,0.00
2018-08-24T03:50:58.807Z,0.00
2018-08-24T03:51:58.794Z,0.00
2018-08-24T03:52:58.913Z,4.00
2018-08-24T03:53:58.772Z,4.00
2018-08-24T03:54:58.776Z,4.00
2018-08-24T03:55:58.752Z,4.00
2018-08-24T03:56:58.755Z,4.00
2018-08-24T03:57:58.733Z,8.00
2018-08-24T03:58:58.722Z,8.00
2018-08-24T03:59:58.726Z,8.00
2018-08-24T04:00:58.708Z,8.00
2018-08-24T04:01:58.685Z,12.00
2018-08-24T04:02:58.674Z,12.00
2018-08-24T04:03:58.663Z,12.00
2018-08-24T04:04:58.667Z,12.00
2018-08-24T04:05:58.648Z,20.00
2018-08-24T04:06:58.632Z,24.00
2018-08-24T04:07:58.639Z,24.00
2018-08-24T04:08:58.608Z,32.00
2018-08-24T04:09:58.601Z,32.00
2018-08-24T04:10:58.590Z,32.00
2018-08-24T04:11:58.579Z,36.00
2018-08-24T04:12:58.685Z,40.00
2018-08-24T04:13:58.557Z,44.00
2018-08-24T04:14:58.545Z,52.00
2018-08-24T04:15:58.534Z,64.00
2018-08-24T04:16:58.522Z,72.00
2018-08-24T04:17:58.525Z,80.00
2018-08-24T04:18:58.502Z,92.00
2018-08-24T04:19:58.488Z,108.00
2018-08-24T04:20:58.497Z,128.00
2018-08-24T04:21:58.470Z,144.00
2018-08-24T04:22:58.459Z,164.00
2018-08-24T04:23:58.448Z,168.00
2018-08-24T04:24:58.437Z,172.00
2018-08-24T04:25:58.497Z,172.00
2018-08-24T04:26:58.418Z,168.00
2018-08-24T04:27:58.407Z,168.00
2018-08-24T04:28:58.396Z,168.00
2018-08-24T04:29:58.386Z,172.00
2018-08-24T04:30:58.370Z,172.00
2018-08-24T04:31:58.371Z,172.00
2018-08-24T04:32:58.355Z,168.00
2018-08-24T04:33:58.342Z,184.00
2018-08-24T04:34:58.387Z,192.00
2018-08-24T04:35:58.319Z,164.00
2018-08-24T04:36:58.322Z,156.00
2018-08-24T04:37:58.311Z,172.00
2018-08-24T04:38:58.287Z,208.00
2018-08-24T04:39:58.276Z,252.00
2018-08-24T04:40:58.275Z,284.00
2018-08-24T04:41:58.269Z,316.00
2018-08-24T04:42:58.258Z,384.00
2018-08-24T04:43:58.235Z,496.00
2018-08-24T04:44:58.222Z,520.00
2018-08-24T04:45:58.216Z,444.00
2018-08-24T04:46:58.204Z,500.00
2018-08-24T04:47:58.205Z,596.00
2018-08-24T04:48:58.180Z,592.00
2018-08-24T04:49:58.171Z,636.00
2018-08-24T04:50:58.160Z,636.00
2018-08-24T04:51:58.153Z,692.00
2018-08-24T04:52:58.171Z,776.00
2018-08-24T04:53:58.126Z,860.00
2018-08-24T04:54:58.119Z,1044.00
2018-08-24T04:55:58.106Z,1276.00
2018-08-24T04:56:58.097Z,1508.00
2018-08-24T04:57:58.085Z,1712.00
2018-08-24T04:58:58.088Z,1944.00
2018-08-24T04:59:58.065Z,1924.00
2018-08-24T05:00:58.058Z,1712.00
2018-08-24T05:01:58.041Z,1640.00
2018-08-24T05:02:58.030Z,1756.00
2018-08-24T05:03:58.057Z,1984.00
2018-08-24T05:04:58.025Z,2208.00
2018-08-24T05:05:57.998Z,2628.00
2018-08-24T05:06:57.988Z,2868.00
2018-08-24T05:07:57.974Z,3100.00
2018-08-24T05:08:57.963Z,3400.00
2018-08-24T05:09:57.971Z,3924.00
2018-08-24T05:10:57.943Z,4528.00
2018-08-24T05:11:57.932Z,4920.00
2018-08-24T05:12:57.919Z,5148.00
2018-08-24T05:13:57.913Z,5152.00
2018-08-24T05:14:57.914Z,5068.00
2018-08-24T05:15:57.887Z,5288.00
2018-08-24T05:16:57.879Z,5632.00
2018-08-24T05:17:57.868Z,5596.00
2018-08-24T05:18:57.857Z,5668.00
2018-08-24T05:19:57.865Z,5484.00
2018-08-24T05:20:57.837Z,5548.00
2018-08-24T05:21:57.826Z,5776.00
2018-08-24T05:22:57.813Z,5644.00
2018-08-24T05:23:57.800Z,5432.00
2018-08-24T05:24:57.787Z,5468.00
2018-08-24T05:25:57.821Z,5164.00
2018-08-24T05:26:57.800Z,4560.00
2018-08-24T05:27:57.761Z,4540.00
2018-08-24T05:28:57.744Z,4584.00
2018-08-24T05:29:57.730Z,4672.00
2018-08-24T05:30:57.722Z,4244.00
2018-08-24T05:31:57.719Z,3676.00
2018-08-24T05:32:57.700Z,2880.00
2018-08-24T05:33:57.687Z,2308.00
2018-08-24T05:34:57.675Z,2040.00
2018-08-24T05:35:57.681Z,1756.00
2018-08-24T05:36:57.656Z,1412.00
2018-08-24T05:37:57.641Z,1172.00
2018-08-24T05:38:57.630Z,1048.00
2018-08-24T05:39:57.619Z,1072.00
2018-08-24T05:40:57.611Z,1064.00
2018-08-24T05:41:57.613Z,876.00
2018-08-24T05:42:57.585Z,888.00
2018-08-24T05:43:57.576Z,828.00
2018-08-24T05:44:57.563Z,664.00
2018-08-24T05:45:57.566Z,688.00
2018-08-24T05:46:57.552Z,684.00
2018-08-24T05:47:57.528Z,804.00
2018-08-24T05:48:57.601Z,972.00
2018-08-24T05:49:57.508Z,1352.00
2018-08-24T05:50:57.495Z,1716.00
2018-08-24T05:51:57.513Z,2104.00
2018-08-24T05:52:57.475Z,2572.00
2018-08-24T05:53:57.462Z,2964.00
2018-08-24T05:54:57.454Z,3112.00
2018-08-24T05:55:57.439Z,3328.00
2018-08-24T05:56:57.431Z,3640.00
2018-08-24T05:57:57.429Z,3520.00
2018-08-24T05:58:57.409Z,3560.00
2018-08-24T05:59:57.394Z,3884.00
2018-08-24T06:00:57.394Z,3912.00
2018-08-24T06:01:57.399Z,4408.00
2018-08-24T06:02:57.361Z,4760.00
2018-08-24T06:03:57.351Z,5524.00
2018-08-24T06:04:57.337Z,6164.00
2018-08-24T06:05:57.329Z,6228.00
2018-08-24T06:06:57.319Z,6248.00
2018-08-24T06:07:57.319Z,6312.00
2018-08-24T06:08:57.293Z,6288.00
2018-08-24T06:09:57.294Z,6288.00
2018-08-24T06:10:57.272Z,6344.00
2018-08-24T06:11:57.278Z,6380.00
2018-08-24T06:12:57.260Z,6360.00
2018-08-24T06:13:57.238Z,6376.00
2018-08-24T06:14:57.225Z,6496.00
2018-08-24T06:15:57.247Z,6744.00
2018-08-24T06:16:57.219Z,6980.00
2018-08-24T06:17:57.207Z,7164.00
2018-08-24T06:18:57.183Z,7256.00
2018-08-24T06:19:57.172Z,7256.00
2018-08-24T06:20:57.170Z,7244.00
2018-08-24T06:21:57.149Z,7360.00
2018-08-24T06:22:57.154Z,7592.00
2018-08-24T06:23:57.123Z,8160.00
2018-08-24T06:24:57.112Z,8900.00
2018-08-24T06:25:57.102Z,9604.00
2018-08-24T06:26:57.093Z,10228.00
2018-08-24T06:27:57.103Z,10732.00
2018-08-24T06:28:57.071Z,11064.00
2018-08-24T06:29:57.058Z,11220.00
2018-08-24T06:30:57.045Z,11312.00
2018-08-24T06:31:57.042Z,11288.00
2018-08-24T06:32:57.095Z,11236.00
2018-08-24T06:33:57.028Z,11156.00
2018-08-24T06:34:57.011Z,11060.00
2018-08-24T06:35:56.993Z,10528.00
2018-08-24T06:36:56.986Z,10392.00
2018-08-24T06:37:56.964Z,10216.00
2018-08-24T06:38:56.977Z,10096.00
2018-08-24T06:39:56.944Z,10076.00
2018-08-24T06:40:56.935Z,10180.00
2018-08-24T06:41:57.027Z,10080.00
2018-08-24T06:42:56.912Z,9588.00
2018-08-24T06:43:56.899Z,9044.00
2018-08-24T06:44:56.896Z,8624.00
2018-08-24T06:45:56.878Z,8292.00
2018-08-24T06:46:56.879Z,7292.00
2018-08-24T06:47:56.852Z,6968.00
2018-08-24T06:48:56.855Z,7344.00
2018-08-24T06:49:56.833Z,7336.00
2018-08-24T06:50:56.847Z,7520.00
2018-08-24T06:51:56.812Z,7688.00
2018-08-24T06:52:56.814Z,8484.00
2018-08-24T06:53:56.808Z,9036.00
2018-08-24T06:54:56.776Z,8676.00
2018-08-24T06:55:56.778Z,7924.00
2018-08-24T06:56:56.779Z,7536.00
2018-08-24T06:57:56.744Z,6612.00
2018-08-24T06:58:56.735Z,7856.00
2018-08-24T06:59:56.728Z,8448.00
2018-08-24T07:00:56.727Z,7688.00
2018-08-24T07:01:56.702Z,8896.00
2018-08-24T07:02:56.720Z,9436.00
2018-08-24T07:03:56.680Z,9588.00
2018-08-24T07:04:56.667Z,11340.00
2018-08-24T07:05:56.697Z,12744.00
2018-08-24T07:06:56.648Z,13140.00
2018-08-24T07:07:56.636Z,12504.00
2018-08-24T07:08:56.638Z,13008.00
2018-08-24T07:09:56.616Z,12628.00
2018-08-24T07:10:56.614Z,11064.00
2018-08-24T07:11:56.615Z,10968.00
2018-08-24T07:12:56.680Z,10028.00
2018-08-24T07:13:56.570Z,10592.00
2018-08-24T07:14:56.560Z,11616.00
2018-08-24T07:15:56.549Z,11316.00
2018-08-24T07:16:56.541Z,8808.00
2018-08-24T07:17:56.541Z,8568.00
2018-08-24T07:18:56.534Z,8860.00
2018-08-24T07:19:56.505Z,7688.00
2018-08-24T07:20:56.495Z,10500.00
2018-08-24T07:21:56.485Z,12128.00
2018-08-24T07:22:56.474Z,10184.00
2018-08-24T07:23:56.464Z,9736.00
2018-08-24T07:24:56.465Z,8584.00
2018-08-24T07:25:56.439Z,6784.00
2018-08-24T07:26:56.428Z,6948.00
2018-08-24T07:27:56.431Z,9584.00
2018-08-24T07:28:56.408Z,9452.00
2018-08-24T07:29:56.397Z,6696.00
2018-08-24T07:30:56.384Z,5564.00
2018-08-24T07:31:56.375Z,5540.00
2018-08-24T07:32:56.383Z,5340.00
2018-08-24T07:33:56.353Z,6060.00
2018-08-24T07:34:56.346Z,7700.00
2018-08-24T07:35:56.333Z,6096.00
2018-08-24T07:36:56.322Z,6712.00
2018-08-24T07:37:56.309Z,6752.00
2018-08-24T07:38:56.319Z,5612.00
2018-08-24T07:39:56.287Z,5276.00
2018-08-24T07:40:56.277Z,5416.00
2018-08-24T07:41:56.317Z,7160.00
2018-08-24T07:42:56.253Z,7580.00
2018-08-24T07:43:56.258Z,5412.00
2018-08-24T07:44:56.233Z,5116.00
2018-08-24T07:45:56.220Z,5132.00
2018-08-24T07:46:56.212Z,3380.00
2018-08-24T07:47:56.200Z,4360.00
2018-08-24T07:48:56.234Z,6144.00
2018-08-24T07:49:56.178Z,6616.00
2018-08-24T07:50:56.256Z,6472.00
2018-08-24T07:51:56.153Z,7340.00
2018-08-24T07:52:56.143Z,8540.00
2018-08-24T07:53:56.156Z,8612.00
2018-08-24T07:54:56.120Z,7200.00
2018-08-24T07:55:56.108Z,7796.00
2018-08-24T07:56:56.132Z,8040.00
2018-08-24T07:57:56.088Z,7240.00
2018-08-24T07:58:56.076Z,6672.00
2018-08-24T07:59:56.101Z,8868.00
2018-08-24T08:00:56.052Z,11936.00
2018-08-24T08:01:56.044Z,12676.00
2018-08-24T08:02:56.041Z,13124.00
2018-08-24T08:03:56.019Z,13708.00
2018-08-24T08:04:56.008Z,12964.00
2018-08-24T08:05:56.025Z,15328.00
2018-08-24T08:06:55.985Z,18112.00
2018-08-24T08:07:55.978Z,20576.00
2018-08-24T08:08:55.966Z,21152.00
2018-08-24T08:09:55.954Z,20160.00
2018-08-24T08:10:55.941Z,19424.00
2018-08-24T08:11:55.976Z,16800.00
2018-08-24T08:12:55.924Z,12428.00
2018-08-24T08:13:55.911Z,14176.00
2018-08-24T08:14:55.902Z,12764.00
2018-08-24T08:15:55.889Z,14812.00
2018-08-24T08:16:55.879Z,14552.00
2018-08-24T08:17:55.883Z,13676.00
2018-08-24T08:18:55.859Z,11764.00
2018-08-24T08:19:55.867Z,13928.00
2018-08-24T08:20:55.835Z,14676.00
2018-08-24T08:21:55.822Z,15276.00
2018-08-24T08:22:55.813Z,15748.00
2018-08-24T08:23:55.814Z,15060.00
2018-08-24T08:24:55.789Z,14860.00
2018-08-24T08:25:55.791Z,13060.00
2018-08-24T08:26:55.781Z,14696.00
2018-08-24T08:27:55.755Z,17664.00
2018-08-24T08:28:55.747Z,17376.00
2018-08-24T08:29:55.735Z,14848.00
2018-08-24T08:30:55.726Z,11644.00
2018-08-24T08:31:55.728Z,9688.00
2018-08-24T08:32:55.703Z,9928.00
2018-08-24T08:33:55.691Z,9728.00
2018-08-24T08:34:55.682Z,9068.00
2018-08-24T08:35:55.672Z,6980.00
2018-08-24T08:36:55.678Z,6264.00
2018-08-24T08:37:55.648Z,5588.00
2018-08-24T08:38:55.684Z,4960.00
2018-08-24T08:39:55.628Z,6120.00
2018-08-24T08:40:55.618Z,5996.00
2018-08-24T08:41:55.623Z,5904.00
2018-08-24T08:42:55.596Z,8744.00
2018-08-24T08:43:55.583Z,10944.00
2018-08-24T08:44:55.575Z,11148.00
2018-08-24T08:45:55.562Z,11572.00
2018-08-24T08:46:55.550Z,11444.00
2018-08-24T08:47:55.563Z,10732.00
2018-08-24T08:48:55.531Z,11192.00
2018-08-24T08:49:55.517Z,10520.00
2018-08-24T08:50:55.507Z,10284.00
2018-08-24T08:51:55.496Z,9712.00
2018-08-24T08:52:55.484Z,9608.00
2018-08-24T08:53:55.486Z,8776.00
2018-08-24T08:54:55.465Z,8348.00
2018-08-24T08:55:55.455Z,8292.00
2018-08-24T08:56:55.443Z,8564.00
2018-08-24T08:57:55.433Z,9200.00
2018-08-24T08:58:55.438Z,9808.00
2018-08-24T08:59:55.410Z,10400.00
2018-08-24T09:00:55.396Z,10608.00
2018-08-24T09:01:55.392Z,10608.00
2018-08-24T09:02:55.377Z,9880.00
2018-08-24T09:03:55.367Z,8628.00
2018-08-24T09:04:55.371Z,8628.00
2018-08-24T09:05:55.348Z,8264.00
2018-08-24T09:06:55.336Z,7028.00
2018-08-24T09:07:55.323Z,5928.00
2018-08-24T09:08:55.312Z,5628.00
2018-08-24T09:09:55.317Z,6356.00
2018-08-24T09:10:55.289Z,7444.00
2018-08-24T09:11:55.276Z,9156.00
2018-08-24T09:12:55.328Z,9956.00
2018-08-24T09:13:55.255Z,10728.00
2018-08-24T09:14:55.246Z,11964.00
2018-08-24T09:15:55.247Z,13776.00
2018-08-24T09:16:55.227Z,15500.00
2018-08-24T09:17:55.216Z,15884.00
2018-08-24T09:18:55.205Z,14016.00
2018-08-24T09:19:55.213Z,13700.00
2018-08-24T09:20:55.182Z,13244.00
2018-08-24T09:21:55.186Z,13396.00
2018-08-24T09:22:55.165Z,14280.00
2018-08-24T09:23:55.145Z,16164.00
2018-08-24T09:24:55.159Z,17152.00
2018-08-24T09:25:55.123Z,17568.00
2018-08-24T09:26:55.116Z,18400.00
2018-08-24T09:27:55.103Z,19200.00
2018-08-24T09:28:55.091Z,19616.00
2018-08-24T09:29:55.084Z,20128.00
2018-08-24T09:30:55.089Z,20800.00
2018-08-24T09:31:55.059Z,21248.00
2018-08-24T09:32:55.067Z,21248.00
2018-08-24T09:33:55.041Z,21760.00
2018-08-24T09:34:55.027Z,22176.00
2018-08-24T09:35:55.030Z,22624.00
2018-08-24T09:36:55.005Z,22432.00
2018-08-24T09:37:55.067Z,22208.00
2018-08-24T09:38:54.988Z,23488.00
2018-08-24T09:39:54.975Z,23296.00
2018-08-24T09:40:54.964Z,23872.00
2018-08-24T09:41:54.952Z,25600.00
2018-08-24T09:42:54.971Z,25280.00
2018-08-24T09:43:54.971Z,23456.00
2018-08-24T09:44:54.917Z,24096.00
2018-08-24T09:45:54.905Z,28064.00
2018-08-24T09:46:54.898Z,26176.00
2018-08-24T09:47:54.884Z,21472.00
2018-08-24T09:48:54.904Z,15920.00
2018-08-24T09:49:54.877Z,17376.00
2018-08-24T09:50:54.851Z,17920.00
2018-08-24T09:51:54.842Z,18560.00
2018-08-24T09:52:54.833Z,19232.00
2018-08-24T09:53:54.837Z,22944.00
2018-08-24T09:54:54.848Z,27840.00
2018-08-24T09:55:54.797Z,25824.00
2018-08-24T09:56:54.820Z,32672.00
2018-08-24T09:57:54.779Z,41248.00
2018-08-24T09:58:54.764Z,42624.00
2018-08-24T09:59:54.755Z,41792.00
2018-08-24T10:00:54.767Z,40832.00
2018-08-24T10:01:54.731Z,45344.00
2018-08-24T10:02:54.756Z,52928.00
2018-08-24T10:03:54.710Z,48288.00
2018-08-24T10:04:54.700Z,45024.00
2018-08-24T10:05:54.689Z,44832.00
2018-08-24T10:06:54.693Z,64032.00
2018-08-24T10:07:54.669Z,80928.00
2018-08-24T10:08:54.659Z,61600.00
2018-08-24T10:09:54.648Z,55488.00
2018-08-24T10:10:54.638Z,51712.00
2018-08-24T10:11:54.645Z,47424.00
2018-08-24T10:12:54.614Z,52544.00
2018-08-24T10:13:54.604Z,78976.00
2018-08-24T10:14:54.591Z,40960.00
2018-08-24T10:15:54.585Z,45312.00
2018-08-24T10:16:54.570Z,40352.00
2018-08-24T10:17:54.572Z,32224.00
2018-08-24T10:18:54.544Z,34336.00
2018-08-24T10:19:54.532Z,39648.00
2018-08-24T10:20:54.528Z,42336.00
2018-08-24T10:21:54.527Z,41056.00
2018-08-24T10:22:54.503Z,69472.00
2018-08-24T10:23:54.488Z,62464.00
2018-08-24T10:24:54.477Z,68448.00
2018-08-24T10:25:54.468Z,60608.00
2018-08-24T10:26:54.471Z,69120.00
2018-08-24T10:27:54.443Z,66272.00
2018-08-24T10:28:54.434Z,108288.00
2018-08-24T10:29:54.428Z,119136.00
2018-08-24T10:30:54.418Z,50880.00
2018-08-24T10:31:54.440Z,48416.00
2018-08-24T10:32:54.392Z,27232.00
2018-08-24T10:33:54.466Z,20992.00
2018-08-24T10:34:54.370Z,18400.00
2018-08-24T10:35:54.356Z,16800.00
2018-08-24T10:36:54.346Z,16564.00
2018-08-24T10:37:54.379Z,20544.00
2018-08-24T10:38:54.329Z,82720.00
2018-08-24T10:39:54.328Z,34144.00
2018-08-24T10:40:54.346Z,92288.00
2018-08-24T10:41:54.294Z,106144.00
2018-08-24T10:42:54.282Z,48864.00
2018-08-24T10:43:54.273Z,103232.00
2018-08-24T10:44:54.280Z,100832.00
2018-08-24T10:45:54.251Z,102016.00
2018-08-24T10:46:54.239Z,103360.00
2018-08-24T10:47:54.235Z,101664.00
2018-08-24T10:48:54.219Z,103104.00
2018-08-24T10:49:54.225Z,17800.00
2018-08-24T10:50:54.197Z,99904.00
2018-08-24T10:51:54.207Z,96192.00
2018-08-24T10:52:54.174Z,95360.00
2018-08-24T10:53:54.180Z,94240.00
2018-08-24T10:54:54.202Z,96640.00
2018-08-24T10:55:54.213Z,94368.00
2018-08-24T10:56:54.133Z,96992.00
2018-08-24T10:57:54.124Z,97472.00
2018-08-24T10:58:54.129Z,100160.00
2018-08-24T10:59:54.098Z,102528.00
2018-08-24T11:00:54.088Z,21248.00
2018-08-24T11:01:54.085Z,102208.00
2018-08-24T11:02:54.069Z,99584.00
2018-08-24T11:03:54.070Z,100224.00
2018-08-24T11:04:54.046Z,101920.00
2018-08-24T11:05:54.035Z,93856.00
2018-08-24T11:06:54.026Z,101344.00
2018-08-24T11:07:54.017Z,101952.00
2018-08-24T11:08:54.022Z,99680.00
2018-08-24T11:09:54.004Z,107552.00
2018-08-24T11:10:54.000Z,106464.00
2018-08-24T11:11:53.976Z,106976.00
2018-08-24T11:12:53.966Z,106784.00
2018-08-24T11:13:53.967Z,27168.00
2018-08-24T11:14:53.941Z,108448.00
2018-08-24T11:15:53.940Z,20864.00
2018-08-24T11:16:53.954Z,17728.00
2018-08-24T11:17:53.911Z,22016.00
2018-08-24T11:18:53.896Z,26048.00
2018-08-24T11:19:53.888Z,29952.00
2018-08-24T11:20:53.889Z,115040.00
2018-08-24T11:21:53.864Z,117152.00
2018-08-24T11:22:53.904Z,109792.00
2018-08-24T11:23:53.854Z,110176.00
2018-08-24T11:24:53.832Z,109856.00
2018-08-24T11:25:53.823Z,112672.00
2018-08-24T11:26:53.882Z,112192.00
2018-08-24T11:27:53.810Z,109504.00
2018-08-24T11:28:53.793Z,108736.00
2018-08-24T11:29:53.782Z,113024.00
2018-08-24T11:30:53.775Z,113344.00
2018-08-24T11:31:53.758Z,112384.00
2018-08-24T11:32:53.789Z,24096.00
2018-08-24T11:33:53.743Z,107776.00
2018-08-24T11:34:53.727Z,110112.00
2018-08-24T11:35:53.732Z,80096.00
2018-08-24T11:36:53.706Z,114624.00
2018-08-24T11:37:53.698Z,108000.00
2018-08-24T11:38:53.699Z,103936.00
2018-08-24T11:39:53.680Z,103456.00
2018-08-24T11:40:53.668Z,60416.00
2018-08-24T11:41:53.687Z,29376.00
2018-08-24T11:42:53.642Z,59840.00
2018-08-24T11:43:53.652Z,20640.00
2018-08-24T11:44:53.623Z,17632.00
2018-08-24T11:45:53.628Z,15604.00
2018-08-24T11:46:53.605Z,65696.00
2018-08-24T11:47:53.640Z,110880.00
2018-08-24T11:48:53.579Z,107328.00
2018-08-24T11:49:53.569Z,104480.00
2018-08-24T11:50:53.573Z,78144.00
2018-08-24T11:51:53.550Z,67136.00
2018-08-24T11:52:53.537Z,103584.00
2018-08-24T11:53:53.566Z,100672.00
2018-08-24T11:54:53.520Z,100288.00
2018-08-24T11:55:53.508Z,100000.00
2018-08-24T11:56:53.495Z,100704.00
2018-08-24T11:57:53.486Z,101376.00
2018-08-24T11:58:53.476Z,97728.00
2018-08-24T11:59:53.525Z,97792.00
2018-08-24T12:00:53.450Z,96416.00
2018-08-24T12:01:53.446Z,97568.00
2018-08-24T12:02:53.434Z,49280.00
2018-08-24T12:03:53.423Z,94176.00
2018-08-24T12:04:53.412Z,102624.00
2018-08-24T12:05:53.413Z,101632.00
2018-08-24T12:06:53.394Z,100704.00
2018-08-24T12:07:53.524Z,101056.00
2018-08-24T12:08:53.371Z,99872.00
2018-08-24T12:09:53.360Z,101472.00
2018-08-24T12:10:53.353Z,102496.00
2018-08-24T12:11:53.336Z,103328.00
2018-08-24T12:12:53.325Z,101824.00
2018-08-24T12:13:53.365Z,100704.00
2018-08-24T12:14:53.306Z,101888.00
2018-08-24T12:15:53.295Z,104416.00
2018-08-24T12:16:53.286Z,109248.00
2018-08-24T12:17:53.276Z,42880.00
2018-08-24T12:18:53.280Z,34496.00
2018-08-24T12:19:53.263Z,27840.00